sensor_id;sensor_type;location;lat;lon;timestamp;temperature;humidity
5200;DHT22;2619;47.868;11.892;2023-04-25T00:00:41;6.50;99.90
5200;DHT22;2619;47.868;11.892;2023-04-25T00:03:07;6.50;99.90
5200;DHT22;2619;47.868;11.892;2023-04-25T00:05:34;6.50;99.90
5200;DHT22;2619;47.868;11.892;2023-04-25T00:08:03;6.60;99.90
5200;DHT22;2619;47.868;11.892;2023-04-25T00:10:28;6.70;99.90
5200;DHT22;2619;47.868;11.892;2023-04-25T00:12:54;6.80;99.90
5200;DHT22;2619;47.868;11.892;2023-04-25T00:15:19;6.80;99.90
5200;DHT22;2619;47.868;11.892;2023-04-25T00:17:45;6.90;99.90
5200;DHT22;2619;47.868;11.892;2023-04-25T00:20:11;7.00;99.90
5200;DHT22;2619;47.868;11.892;2023-04-25T00:22:37;7.00;99.90
5200;DHT22;2619;47.868;11.892;2023-04-25T00:25:06;7.10;99.90
5200;DHT22;2619;47.868;11.892;2023-04-25T00:27:32;7.10;99.90
5200;DHT22;2619;47.868;11.892;2023-04-25T00:29:58;7.20;99.90
5200;DHT22;2619;47.868;11.892;2023-04-25T00:32:24;7.20;99.90
5200;DHT22;2619;47.868;11.892;2023-04-25T00:34:49;7.20;99.90
5200;DHT22;2619;47.868;11.892;2023-04-25T00:37:15;7.20;99.90
5200;DHT22;2619;47.868;11.892;2023-04-25T00:39:41;7.20;99.90
5200;DHT22;2619;47.868;11.892;2023-04-25T00:42:07;7.10;99.90
5200;DHT22;2619;47.868;11.892;2023-04-25T00:44:33;7.20;99.90
5200;DHT22;2619;47.868;11.892;2023-04-25T00:47:02;7.20;99.90
5200;DHT22;2619;47.868;11.892;2023-04-25T00:49:27;7.10;99.90
5200;DHT22;2619;47.868;11.892;2023-04-25T00:51:53;7.10;99.90
5200;DHT22;2619;47.868;11.892;2023-04-25T00:54:19;7.00;99.90
5200;DHT22;2619;47.868;11.892;2023-04-25T00:56:44;7.00;99.90
5200;DHT22;2619;47.868;11.892;2023-04-25T00:59:10;6.90;99.90
5200;DHT22;2619;47.868;11.892;2023-04-25T01:01:36;6.80;99.90
5200;DHT22;2619;47.868;11.892;2023-04-25T01:04:04;6.90;99.90
5200;DHT22;2619;47.868;11.892;2023-04-25T01:06:30;6.80;99.90
5200;DHT22;2619;47.868;11.892;2023-04-25T01:08:56;6.80;99.90
5200;DHT22;2619;47.868;11.892;2023-04-25T01:11:22;6.70;99.90
5200;DHT22;2619;47.868;11.892;2023-04-25T01:13:47;6.70;99.90
5200;DHT22;2619;47.868;11.892;2023-04-25T01:16:13;6.60;99.90
5200;DHT22;2619;47.868;11.892;2023-04-25T01:18:40;6.60;99.90
5200;DHT22;2619;47.868;11.892;2023-04-25T01:21:10;6.50;99.90
5200;DHT22;2619;47.868;11.892;2023-04-25T01:23:39;6.50;99.90
5200;DHT22;2619;47.868;11.892;2023-04-25T01:26:06;6.60;99.90
5200;DHT22;2619;47.868;11.892;2023-04-25T01:28:33;6.60;99.90
5200;DHT22;2619;47.868;11.892;2023-04-25T01:30:59;6.60;99.90
5200;DHT22;2619;47.868;11.892;2023-04-25T01:33:25;6.60;99.90
5200;DHT22;2619;47.868;11.892;2023-04-25T01:35:50;6.60;99.90
5200;DHT22;2619;47.868;11.892;2023-04-25T01:38:16;6.70;99.90
5200;DHT22;2619;47.868;11.892;2023-04-25T01:40:44;6.80;99.90
5200;DHT22;2619;47.868;11.892;2023-04-25T01:43:11;6.70;99.90
5200;DHT22;2619;47.868;11.892;2023-04-25T01:45:38;6.80;99.90
5200;DHT22;2619;47.868;11.892;2023-04-25T01:48:08;6.80;99.90
5200;DHT22;2619;47.868;11.892;2023-04-25T01:50:34;6.80;99.90
5200;DHT22;2619;47.868;11.892;2023-04-25T01:52:59;6.80;99.90
5200;DHT22;2619;47.868;11.892;2023-04-25T01:55:25;6.80;99.90
5200;DHT22;2619;47.868;11.892;2023-04-25T01:57:51;6.80;99.90
5200;DHT22;2619;47.868;11.892;2023-04-25T02:00:17;6.80;99.90
5200;DHT22;2619;47.868;11.892;2023-04-25T02:02:42;6.70;99.90
5200;DHT22;2619;47.868;11.892;2023-04-25T02:05:08;6.70;99.90
5200;DHT22;2619;47.868;11.892;2023-04-25T02:07:34;6.60;99.90
5200;DHT22;2619;47.868;11.892;2023-04-25T02:09:59;6.50;99.90
5200;DHT22;2619;47.868;11.892;2023-04-25T02:12:25;6.40;99.90
5200;DHT22;2619;47.868;11.892;2023-04-25T02:14:51;6.30;99.90
5200;DHT22;2619;47.868;11.892;2023-04-25T02:17:17;6.40;99.90
5200;DHT22;2619;47.868;11.892;2023-04-25T02:19:43;6.40;99.90
5200;DHT22;2619;47.868;11.892;2023-04-25T02:22:09;6.40;99.90
5200;DHT22;2619;47.868;11.892;2023-04-25T02:24:35;6.30;99.90
5200;DHT22;2619;47.868;11.892;2023-04-25T02:27:01;6.30;99.90
5200;DHT22;2619;47.868;11.892;2023-04-25T02:29:27;6.30;99.90
5200;DHT22;2619;47.868;11.892;2023-04-25T02:31:52;6.40;99.90
5200;DHT22;2619;47.868;11.892;2023-04-25T02:34:18;6.30;99.90
5200;DHT22;2619;47.868;11.892;2023-04-25T02:36:43;6.40;99.90
5200;DHT22;2619;47.868;11.892;2023-04-25T02:39:09;6.40;99.90
5200;DHT22;2619;47.868;11.892;2023-04-25T02:41:35;6.50;99.90
5200;DHT22;2619;47.868;11.892;2023-04-25T02:44:01;6.70;99.90
5200;DHT22;2619;47.868;11.892;2023-04-25T02:46:26;6.80;99.90
5200;DHT22;2619;47.868;11.892;2023-04-25T02:48:52;6.80;99.90
5200;DHT22;2619;47.868;11.892;2023-04-25T02:51:17;6.80;99.90
5200;DHT22;2619;47.868;11.892;2023-04-25T02:53:44;6.90;99.90
5200;DHT22;2619;47.868;11.892;2023-04-25T02:56:09;6.90;99.90
5200;DHT22;2619;47.868;11.892;2023-04-25T02:58:35;7.00;99.90
5200;DHT22;2619;47.868;11.892;2023-04-25T03:01:01;7.00;99.90
5200;DHT22;2619;47.868;11.892;2023-04-25T03:03:26;7.00;99.90
5200;DHT22;2619;47.868;11.892;2023-04-25T03:05:52;7.10;99.90
5200;DHT22;2619;47.868;11.892;2023-04-25T03:08:18;7.10;99.90
5200;DHT22;2619;47.868;11.892;2023-04-25T03:10:44;7.10;99.90
5200;DHT22;2619;47.868;11.892;2023-04-25T03:13:10;7.00;99.90
5200;DHT22;2619;47.868;11.892;2023-04-25T03:15:36;7.00;99.90
5200;DHT22;2619;47.868;11.892;2023-04-25T03:18:02;7.10;99.90
5200;DHT22;2619;47.868;11.892;2023-04-25T03:20:28;7.00;99.90
5200;DHT22;2619;47.868;11.892;2023-04-25T03:22:54;7.00;99.90
5200;DHT22;2619;47.868;11.892;2023-04-25T03:25:19;7.00;99.90
5200;DHT22;2619;47.868;11.892;2023-04-25T03:27:45;7.00;99.90
5200;DHT22;2619;47.868;11.892;2023-04-25T03:30:11;7.00;99.90
5200;DHT22;2619;47.868;11.892;2023-04-25T03:32:36;6.90;99.90
5200;DHT22;2619;47.868;11.892;2023-04-25T03:35:02;6.90;99.90
5200;DHT22;2619;47.868;11.892;2023-04-25T03:37:28;6.80;99.90
5200;DHT22;2619;47.868;11.892;2023-04-25T03:39:54;6.80;99.90
5200;DHT22;2619;47.868;11.892;2023-04-25T03:42:20;6.70;99.90
5200;DHT22;2619;47.868;11.892;2023-04-25T03:44:48;6.70;99.90
5200;DHT22;2619;47.868;11.892;2023-04-25T03:47:14;6.70;99.90
5200;DHT22;2619;47.868;11.892;2023-04-25T03:49:39;6.70;99.90
5200;DHT22;2619;47.868;11.892;2023-04-25T03:52:05;6.80;99.90
5200;DHT22;2619;47.868;11.892;2023-04-25T03:54:30;6.70;99.90
5200;DHT22;2619;47.868;11.892;2023-04-25T03:56:56;6.70;99.90
5200;DHT22;2619;47.868;11.892;2023-04-25T03:59:22;6.90;99.90
5200;DHT22;2619;47.868;11.892;2023-04-25T04:01:47;6.80;99.90
5200;DHT22;2619;47.868;11.892;2023-04-25T04:04:13;6.70;99.90
5200;DHT22;2619;47.868;11.892;2023-04-25T04:06:39;6.70;99.90
5200;DHT22;2619;47.868;11.892;2023-04-25T04:09:05;6.70;99.90
5200;DHT22;2619;47.868;11.892;2023-04-25T04:11:34;6.20;99.90
5200;DHT22;2619;47.868;11.892;2023-04-25T04:14:02;5.80;99.90
5200;DHT22;2619;47.868;11.892;2023-04-25T04:16:27;5.70;99.90
5200;DHT22;2619;47.868;11.892;2023-04-25T04:18:53;5.60;99.90
5200;DHT22;2619;47.868;11.892;2023-04-25T04:21:18;5.50;99.90
5200;DHT22;2619;47.868;11.892;2023-04-25T04:23:44;5.40;99.90
5200;DHT22;2619;47.868;11.892;2023-04-25T04:26:10;5.40;99.90
5200;DHT22;2619;47.868;11.892;2023-04-25T04:28:36;5.30;99.90
5200;DHT22;2619;47.868;11.892;2023-04-25T04:31:03;5.20;99.90
5200;DHT22;2619;47.868;11.892;2023-04-25T04:33:29;5.20;99.90
5200;DHT22;2619;47.868;11.892;2023-04-25T04:35:56;5.20;99.90
5200;DHT22;2619;47.868;11.892;2023-04-25T04:38:21;5.20;99.90
5200;DHT22;2619;47.868;11.892;2023-04-25T04:40:47;5.20;99.90
5200;DHT22;2619;47.868;11.892;2023-04-25T04:43:13;5.20;99.90
5200;DHT22;2619;47.868;11.892;2023-04-25T04:45:42;5.20;99.90
5200;DHT22;2619;47.868;11.892;2023-04-25T04:48:08;5.20;99.90
5200;DHT22;2619;47.868;11.892;2023-04-25T04:50:34;5.20;99.90
5200;DHT22;2619;47.868;11.892;2023-04-25T04:53:01;5.20;99.90
5200;DHT22;2619;47.868;11.892;2023-04-25T04:55:27;5.20;99.90
5200;DHT22;2619;47.868;11.892;2023-04-25T04:57:52;5.00;99.90
5200;DHT22;2619;47.868;11.892;2023-04-25T05:00:18;5.00;99.90
5200;DHT22;2619;47.868;11.892;2023-04-25T05:02:44;5.00;99.90
5200;DHT22;2619;47.868;11.892;2023-04-25T05:05:09;5.10;99.90
5200;DHT22;2619;47.868;11.892;2023-04-25T05:07:35;5.20;99.90
5200;DHT22;2619;47.868;11.892;2023-04-25T05:10:01;5.20;99.90
5200;DHT22;2619;47.868;11.892;2023-04-25T05:12:27;5.20;99.90
5200;DHT22;2619;47.868;11.892;2023-04-25T05:14:52;5.10;99.90
5200;DHT22;2619;47.868;11.892;2023-04-25T05:17:18;5.10;99.90
5200;DHT22;2619;47.868;11.892;2023-04-25T05:19:43;5.10;99.90
5200;DHT22;2619;47.868;11.892;2023-04-25T05:22:09;5.00;99.90
5200;DHT22;2619;47.868;11.892;2023-04-25T05:24:35;4.90;99.90
5200;DHT22;2619;47.868;11.892;2023-04-25T05:27:00;4.90;99.90
5200;DHT22;2619;47.868;11.892;2023-04-25T05:29:26;5.00;99.90
5200;DHT22;2619;47.868;11.892;2023-04-25T05:31:51;5.10;99.90
5200;DHT22;2619;47.868;11.892;2023-04-25T05:34:17;5.20;99.90
5200;DHT22;2619;47.868;11.892;2023-04-25T05:36:42;5.40;99.90
5200;DHT22;2619;47.868;11.892;2023-04-25T05:39:08;5.60;99.90
5200;DHT22;2619;47.868;11.892;2023-04-25T05:41:34;6.00;99.90
5200;DHT22;2619;47.868;11.892;2023-04-25T05:43:59;6.30;99.90
5200;DHT22;2619;47.868;11.892;2023-04-25T05:46:25;6.50;99.90
5200;DHT22;2619;47.868;11.892;2023-04-25T05:48:51;6.70;99.90
5200;DHT22;2619;47.868;11.892;2023-04-25T05:51:16;6.70;99.90
5200;DHT22;2619;47.868;11.892;2023-04-25T05:53:43;6.70;99.90
5200;DHT22;2619;47.868;11.892;2023-04-25T05:56:09;6.40;99.90
5200;DHT22;2619;47.868;11.892;2023-04-25T05:58:35;6.40;99.90
5200;DHT22;2619;47.868;11.892;2023-04-25T06:01:01;6.20;99.90
5200;DHT22;2619;47.868;11.892;2023-04-25T06:03:26;6.10;99.90
5200;DHT22;2619;47.868;11.892;2023-04-25T06:05:52;6.20;99.90
5200;DHT22;2619;47.868;11.892;2023-04-25T06:08:17;6.30;99.90
5200;DHT22;2619;47.868;11.892;2023-04-25T06:10:44;6.30;99.90
5200;DHT22;2619;47.868;11.892;2023-04-25T06:13:10;6.30;99.90
5200;DHT22;2619;47.868;11.892;2023-04-25T06:15:35;6.30;99.90
5200;DHT22;2619;47.868;11.892;2023-04-25T06:18:01;6.40;99.90
5200;DHT22;2619;47.868;11.892;2023-04-25T06:20:26;6.80;99.90
5200;DHT22;2619;47.868;11.892;2023-04-25T06:22:52;7.50;99.90
5200;DHT22;2619;47.868;11.892;2023-04-25T06:25:18;8.40;99.90
5200;DHT22;2619;47.868;11.892;2023-04-25T06:27:43;9.40;99.90
5200;DHT22;2619;47.868;11.892;2023-04-25T06:30:09;10.60;99.90
5200;DHT22;2619;47.868;11.892;2023-04-25T06:32:36;11.10;99.90
5200;DHT22;2619;47.868;11.892;2023-04-25T06:35:02;11.40;99.90
5200;DHT22;2619;47.868;11.892;2023-04-25T06:37:28;11.80;99.90
5200;DHT22;2619;47.868;11.892;2023-04-25T06:39:54;11.90;99.90
5200;DHT22;2619;47.868;11.892;2023-04-25T06:42:20;12.50;99.90
5200;DHT22;2619;47.868;11.892;2023-04-25T06:44:45;13.30;99.90
5200;DHT22;2619;47.868;11.892;2023-04-25T06:47:11;13.60;99.90
5200;DHT22;2619;47.868;11.892;2023-04-25T06:49:36;13.30;99.90
5200;DHT22;2619;47.868;11.892;2023-04-25T06:52:02;13.00;99.90
5200;DHT22;2619;47.868;11.892;2023-04-25T06:54:28;12.70;99.90
5200;DHT22;2619;47.868;11.892;2023-04-25T06:56:55;12.10;99.90
5200;DHT22;2619;47.868;11.892;2023-04-25T06:59:21;12.00;99.90
5200;DHT22;2619;47.868;11.892;2023-04-25T07:01:47;11.40;99.90
5200;DHT22;2619;47.868;11.892;2023-04-25T07:04:12;11.20;99.90
5200;DHT22;2619;47.868;11.892;2023-04-25T07:06:38;11.10;99.90
5200;DHT22;2619;47.868;11.892;2023-04-25T07:09:11;10.80;99.90
5200;DHT22;2619;47.868;11.892;2023-04-25T07:11:37;10.50;99.90
5200;DHT22;2619;47.868;11.892;2023-04-25T07:14:03;10.30;99.90
5200;DHT22;2619;47.868;11.892;2023-04-25T07:16:29;10.30;99.90
5200;DHT22;2619;47.868;11.892;2023-04-25T07:18:54;10.50;99.90
5200;DHT22;2619;47.868;11.892;2023-04-25T07:21:20;10.70;99.90
5200;DHT22;2619;47.868;11.892;2023-04-25T07:23:46;11.00;99.90
5200;DHT22;2619;47.868;11.892;2023-04-25T07:26:12;11.10;99.90
5200;DHT22;2619;47.868;11.892;2023-04-25T07:28:37;10.90;99.90
5200;DHT22;2619;47.868;11.892;2023-04-25T07:31:03;10.60;99.90
5200;DHT22;2619;47.868;11.892;2023-04-25T07:33:29;10.40;99.90
5200;DHT22;2619;47.868;11.892;2023-04-25T07:35:55;10.30;99.90
5200;DHT22;2619;47.868;11.892;2023-04-25T07:38:21;10.30;99.90
5200;DHT22;2619;47.868;11.892;2023-04-25T07:40:48;10.20;99.90
5200;DHT22;2619;47.868;11.892;2023-04-25T07:43:14;10.20;99.90
5200;DHT22;2619;47.868;11.892;2023-04-25T07:45:42;9.90;99.90
5200;DHT22;2619;47.868;11.892;2023-04-25T07:48:08;9.70;99.90
5200;DHT22;2619;47.868;11.892;2023-04-25T07:50:33;9.60;99.90
5200;DHT22;2619;47.868;11.892;2023-04-25T07:52:59;9.50;99.90
5200;DHT22;2619;47.868;11.892;2023-04-25T07:55:25;9.60;99.90
5200;DHT22;2619;47.868;11.892;2023-04-25T07:57:51;9.60;99.90
5200;DHT22;2619;47.868;11.892;2023-04-25T08:00:17;9.80;99.90
5200;DHT22;2619;47.868;11.892;2023-04-25T08:02:42;10.10;99.90
5200;DHT22;2619;47.868;11.892;2023-04-25T08:05:08;10.20;99.90
5200;DHT22;2619;47.868;11.892;2023-04-25T08:07:37;10.40;99.90
5200;DHT22;2619;47.868;11.892;2023-04-25T08:10:05;10.30;99.90
5200;DHT22;2619;47.868;11.892;2023-04-25T08:12:31;10.20;99.90
5200;DHT22;2619;47.868;11.892;2023-04-25T08:14:56;10.30;99.90
5200;DHT22;2619;47.868;11.892;2023-04-25T08:17:22;10.40;99.90
5200;DHT22;2619;47.868;11.892;2023-04-25T08:19:47;10.70;99.90
5200;DHT22;2619;47.868;11.892;2023-04-25T08:22:13;10.70;99.90
5200;DHT22;2619;47.868;11.892;2023-04-25T08:24:40;10.90;99.90
5200;DHT22;2619;47.868;11.892;2023-04-25T08:27:05;11.30;99.90
5200;DHT22;2619;47.868;11.892;2023-04-25T08:29:33;11.50;99.90
5200;DHT22;2619;47.868;11.892;2023-04-25T08:31:58;11.60;99.90
5200;DHT22;2619;47.868;11.892;2023-04-25T08:34:24;11.70;99.90
5200;DHT22;2619;47.868;11.892;2023-04-25T08:36:51;11.80;99.90
5200;DHT22;2619;47.868;11.892;2023-04-25T08:39:16;11.80;99.90
5200;DHT22;2619;47.868;11.892;2023-04-25T08:41:42;12.00;99.90
5200;DHT22;2619;47.868;11.892;2023-04-25T08:44:10;11.60;99.90
5200;DHT22;2619;47.868;11.892;2023-04-25T08:46:38;11.70;99.90
5200;DHT22;2619;47.868;11.892;2023-04-25T08:49:07;11.60;99.90
5200;DHT22;2619;47.868;11.892;2023-04-25T08:51:38;12.10;99.90
5200;DHT22;2619;47.868;11.892;2023-04-25T08:54:12;12.20;99.90
5200;DHT22;2619;47.868;11.892;2023-04-25T08:56:39;12.60;99.90
5200;DHT22;2619;47.868;11.892;2023-04-25T08:59:06;12.40;99.90
5200;DHT22;2619;47.868;11.892;2023-04-25T09:01:34;12.20;99.90
5200;DHT22;2619;47.868;11.892;2023-04-25T09:04:00;12.00;99.90
5200;DHT22;2619;47.868;11.892;2023-04-25T09:06:28;11.80;99.90
5200;DHT22;2619;47.868;11.892;2023-04-25T09:08:54;11.70;99.90
5200;DHT22;2619;47.868;11.892;2023-04-25T09:11:19;11.50;99.90
5200;DHT22;2619;47.868;11.892;2023-04-25T09:13:45;11.30;99.90
5200;DHT22;2619;47.868;11.892;2023-04-25T09:16:11;11.10;99.90
5200;DHT22;2619;47.868;11.892;2023-04-25T09:18:37;10.90;99.90
5200;DHT22;2619;47.868;11.892;2023-04-25T09:21:11;10.40;99.90
5200;DHT22;2619;47.868;11.892;2023-04-25T09:23:41;10.00;99.90
5200;DHT22;2619;47.868;11.892;2023-04-25T09:26:07;9.70;99.90
5200;DHT22;2619;47.868;11.892;2023-04-25T09:28:34;9.40;99.90
5200;DHT22;2619;47.868;11.892;2023-04-25T09:31:01;8.80;99.90
5200;DHT22;2619;47.868;11.892;2023-04-25T09:33:33;8.70;99.90
5200;DHT22;2619;47.868;11.892;2023-04-25T09:36:05;8.60;99.90
5200;DHT22;2619;47.868;11.892;2023-04-25T09:38:36;8.90;99.90
5200;DHT22;2619;47.868;11.892;2023-04-25T09:41:05;9.40;99.90
5200;DHT22;2619;47.868;11.892;2023-04-25T09:43:31;10.00;99.90
5200;DHT22;2619;47.868;11.892;2023-04-25T09:45:57;10.50;99.90
5200;DHT22;2619;47.868;11.892;2023-04-25T09:48:26;10.80;99.90
5200;DHT22;2619;47.868;11.892;2023-04-25T09:51:12;11.10;99.90
5200;DHT22;2619;47.868;11.892;2023-04-25T09:53:45;11.20;99.90
5200;DHT22;2619;47.868;11.892;2023-04-25T09:56:15;10.90;99.90
5200;DHT22;2619;47.868;11.892;2023-04-25T09:58:41;10.80;99.90
5200;DHT22;2619;47.868;11.892;2023-04-25T10:01:10;11.10;99.90
5200;DHT22;2619;47.868;11.892;2023-04-25T10:03:39;11.60;99.90
5200;DHT22;2619;47.868;11.892;2023-04-25T10:06:21;12.10;99.90
5200;DHT22;2619;47.868;11.892;2023-04-25T10:08:51;12.60;99.90
5200;DHT22;2619;47.868;11.892;2023-04-25T10:11:17;13.10;99.90
5200;DHT22;2619;47.868;11.892;2023-04-25T10:13:43;13.70;99.90
5200;DHT22;2619;47.868;11.892;2023-04-25T10:16:09;14.00;99.90
5200;DHT22;2619;47.868;11.892;2023-04-25T10:18:35;14.30;99.90
5200;DHT22;2619;47.868;11.892;2023-04-25T10:21:04;13.80;99.90
5200;DHT22;2619;47.868;11.892;2023-04-25T10:23:31;13.20;99.90
5200;DHT22;2619;47.868;11.892;2023-04-25T10:25:59;13.10;99.90
5200;DHT22;2619;47.868;11.892;2023-04-25T10:28:26;13.10;99.90
5200;DHT22;2619;47.868;11.892;2023-04-25T10:31:07;13.10;99.90
5200;DHT22;2619;47.868;11.892;2023-04-25T10:33:34;13.20;99.90
5200;DHT22;2619;47.868;11.892;2023-04-25T10:36:21;13.50;99.90
5200;DHT22;2619;47.868;11.892;2023-04-25T10:38:49;13.60;99.90
5200;DHT22;2619;47.868;11.892;2023-04-25T10:41:20;13.10;99.90
5200;DHT22;2619;47.868;11.892;2023-04-25T10:43:47;12.90;99.90
5200;DHT22;2619;47.868;11.892;2023-04-25T10:46:24;12.30;99.90
5200;DHT22;2619;47.868;11.892;2023-04-25T10:48:58;12.00;99.90
5200;DHT22;2619;47.868;11.892;2023-04-25T10:51:32;11.30;99.90
5200;DHT22;2619;47.868;11.892;2023-04-25T10:54:05;11.00;99.90
5200;DHT22;2619;47.868;11.892;2023-04-25T10:56:39;11.00;99.90
5200;DHT22;2619;47.868;11.892;2023-04-25T11:01:44;11.40;99.90
5200;DHT22;2619;47.868;11.892;2023-04-25T11:07:10;11.70;99.90
5200;DHT22;2619;47.868;11.892;2023-04-25T11:09:39;12.80;99.90
5200;DHT22;2619;47.868;11.892;2023-04-25T11:12:08;13.40;99.90
5200;DHT22;2619;47.868;11.892;2023-04-25T11:14:34;13.40;99.90
5200;DHT22;2619;47.868;11.892;2023-04-25T11:17:00;13.30;99.90
5200;DHT22;2619;47.868;11.892;2023-04-25T11:19:27;13.10;99.90
5200;DHT22;2619;47.868;11.892;2023-04-25T11:22:00;13.00;99.90
5200;DHT22;2619;47.868;11.892;2023-04-25T11:24:30;12.40;99.90
5200;DHT22;2619;47.868;11.892;2023-04-25T11:26:58;11.30;99.90
5200;DHT22;2619;47.868;11.892;2023-04-25T11:29:28;10.60;99.90
5200;DHT22;2619;47.868;11.892;2023-04-25T11:31:54;10.30;99.90
5200;DHT22;2619;47.868;11.892;2023-04-25T11:34:23;10.10;99.90
5200;DHT22;2619;47.868;11.892;2023-04-25T11:36:50;10.20;99.90
5200;DHT22;2619;47.868;11.892;2023-04-25T11:39:18;10.00;99.90
5200;DHT22;2619;47.868;11.892;2023-04-25T11:41:44;9.40;99.90
5200;DHT22;2619;47.868;11.892;2023-04-25T11:44:09;9.30;99.90
5200;DHT22;2619;47.868;11.892;2023-04-25T11:46:35;9.30;99.90
5200;DHT22;2619;47.868;11.892;2023-04-25T11:49:01;9.00;99.90
5200;DHT22;2619;47.868;11.892;2023-04-25T11:51:27;8.40;99.90
5200;DHT22;2619;47.868;11.892;2023-04-25T11:53:52;8.10;99.90
5200;DHT22;2619;47.868;11.892;2023-04-25T11:56:18;8.00;99.90
5200;DHT22;2619;47.868;11.892;2023-04-25T11:59:14;8.10;99.90
5200;DHT22;2619;47.868;11.892;2023-04-25T12:01:48;8.20;99.90
5200;DHT22;2619;47.868;11.892;2023-04-25T12:06:45;8.10;99.90
5200;DHT22;2619;47.868;11.892;2023-04-25T12:09:16;8.20;99.90
5200;DHT22;2619;47.868;11.892;2023-04-25T12:11:43;8.30;99.90
5200;DHT22;2619;47.868;11.892;2023-04-25T12:14:10;8.60;99.90
5200;DHT22;2619;47.868;11.892;2023-04-25T12:16:44;8.90;99.90
5200;DHT22;2619;47.868;11.892;2023-04-25T12:19:09;9.10;99.90
5200;DHT22;2619;47.868;11.892;2023-04-25T12:21:35;9.10;99.90
5200;DHT22;2619;47.868;11.892;2023-04-25T12:24:23;9.00;99.90
5200;DHT22;2619;47.868;11.892;2023-04-25T12:27:04;8.90;99.90
5200;DHT22;2619;47.868;11.892;2023-04-25T12:29:32;8.80;99.90
5200;DHT22;2619;47.868;11.892;2023-04-25T12:31:58;8.80;99.90
5200;DHT22;2619;47.868;11.892;2023-04-25T12:34:24;8.80;99.90
5200;DHT22;2619;47.868;11.892;2023-04-25T12:36:51;8.70;99.90
5200;DHT22;2619;47.868;11.892;2023-04-25T12:39:21;8.80;99.90
5200;DHT22;2619;47.868;11.892;2023-04-25T12:41:48;8.90;99.90
5200;DHT22;2619;47.868;11.892;2023-04-25T12:44:14;9.10;99.90
5200;DHT22;2619;47.868;11.892;2023-04-25T12:46:40;9.50;99.90
5200;DHT22;2619;47.868;11.892;2023-04-25T12:49:07;9.80;99.90
5200;DHT22;2619;47.868;11.892;2023-04-25T12:51:34;10.00;99.90
5200;DHT22;2619;47.868;11.892;2023-04-25T12:54:00;10.20;99.90
5200;DHT22;2619;47.868;11.892;2023-04-25T12:58:55;10.60;99.90
5200;DHT22;2619;47.868;11.892;2023-04-25T13:01:21;10.60;99.90
5200;DHT22;2619;47.868;11.892;2023-04-25T13:03:47;11.00;99.90
5200;DHT22;2619;47.868;11.892;2023-04-25T13:06:13;11.00;99.90
5200;DHT22;2619;47.868;11.892;2023-04-25T13:08:39;11.20;99.90
5200;DHT22;2619;47.868;11.892;2023-04-25T13:11:05;11.50;99.90
5200;DHT22;2619;47.868;11.892;2023-04-25T13:13:31;11.40;99.90
5200;DHT22;2619;47.868;11.892;2023-04-25T13:15:58;11.10;99.90
5200;DHT22;2619;47.868;11.892;2023-04-25T13:18:23;10.50;99.90
5200;DHT22;2619;47.868;11.892;2023-04-25T13:20:52;10.30;99.90
5200;DHT22;2619;47.868;11.892;2023-04-25T13:23:18;10.10;99.90
5200;DHT22;2619;47.868;11.892;2023-04-25T13:25:44;9.90;99.90
5200;DHT22;2619;47.868;11.892;2023-04-25T13:28:09;9.60;99.90
5200;DHT22;2619;47.868;11.892;2023-04-25T13:30:35;9.00;99.90
5200;DHT22;2619;47.868;11.892;2023-04-25T13:33:01;8.60;99.90
5200;DHT22;2619;47.868;11.892;2023-04-25T13:35:29;8.30;99.90
5200;DHT22;2619;47.868;11.892;2023-04-25T13:37:55;8.20;99.90
5200;DHT22;2619;47.868;11.892;2023-04-25T13:40:21;8.20;99.90
5200;DHT22;2619;47.868;11.892;2023-04-25T13:42:46;8.40;99.90
5200;DHT22;2619;47.868;11.892;2023-04-25T13:45:12;8.60;99.90
5200;DHT22;2619;47.868;11.892;2023-04-25T13:47:37;8.80;99.90
5200;DHT22;2619;47.868;11.892;2023-04-25T13:50:06;9.10;99.90
5200;DHT22;2619;47.868;11.892;2023-04-25T13:52:33;9.10;99.90
5200;DHT22;2619;47.868;11.892;2023-04-25T13:54:59;9.40;99.90
5200;DHT22;2619;47.868;11.892;2023-04-25T13:57:25;9.50;99.90
5200;DHT22;2619;47.868;11.892;2023-04-25T13:59:51;9.50;99.90
5200;DHT22;2619;47.868;11.892;2023-04-25T14:02:18;8.90;99.90
5200;DHT22;2619;47.868;11.892;2023-04-25T14:04:43;8.60;99.90
5200;DHT22;2619;47.868;11.892;2023-04-25T14:07:09;8.60;99.90
5200;DHT22;2619;47.868;11.892;2023-04-25T14:09:36;8.90;99.90
5200;DHT22;2619;47.868;11.892;2023-04-25T14:12:02;9.30;99.90
5200;DHT22;2619;47.868;11.892;2023-04-25T14:14:27;9.50;99.90
5200;DHT22;2619;47.868;11.892;2023-04-25T14:16:53;9.50;99.90
5200;DHT22;2619;47.868;11.892;2023-04-25T14:19:20;9.20;99.90
5200;DHT22;2619;47.868;11.892;2023-04-25T14:21:46;8.70;99.90
5200;DHT22;2619;47.868;11.892;2023-04-25T14:24:13;8.20;99.90
5200;DHT22;2619;47.868;11.892;2023-04-25T14:26:38;8.10;99.90
5200;DHT22;2619;47.868;11.892;2023-04-25T14:29:05;7.80;99.90
5200;DHT22;2619;47.868;11.892;2023-04-25T14:31:31;7.60;99.90
5200;DHT22;2619;47.868;11.892;2023-04-25T14:33:57;7.60;99.90
5200;DHT22;2619;47.868;11.892;2023-04-25T14:36:22;7.70;99.90
5200;DHT22;2619;47.868;11.892;2023-04-25T14:38:48;7.70;99.90
5200;DHT22;2619;47.868;11.892;2023-04-25T14:41:14;7.90;99.90
5200;DHT22;2619;47.868;11.892;2023-04-25T14:43:39;8.00;99.90
5200;DHT22;2619;47.868;11.892;2023-04-25T14:46:06;8.00;99.90
5200;DHT22;2619;47.868;11.892;2023-04-25T14:48:33;8.10;99.90
5200;DHT22;2619;47.868;11.892;2023-04-25T14:50:59;8.30;99.90
5200;DHT22;2619;47.868;11.892;2023-04-25T14:53:25;8.60;99.90
5200;DHT22;2619;47.868;11.892;2023-04-25T14:55:51;8.40;99.90
5200;DHT22;2619;47.868;11.892;2023-04-25T14:58:17;8.00;99.90
5200;DHT22;2619;47.868;11.892;2023-04-25T15:00:43;7.80;99.90
5200;DHT22;2619;47.868;11.892;2023-04-25T15:03:09;7.60;99.90
5200;DHT22;2619;47.868;11.892;2023-04-25T15:05:37;7.50;99.90
5200;DHT22;2619;47.868;11.892;2023-04-25T15:08:02;7.40;99.90
5200;DHT22;2619;47.868;11.892;2023-04-25T15:10:29;7.50;99.90
5200;DHT22;2619;47.868;11.892;2023-04-25T15:12:54;7.60;99.90
5200;DHT22;2619;47.868;11.892;2023-04-25T15:15:20;7.70;99.90
5200;DHT22;2619;47.868;11.892;2023-04-25T15:17:46;7.80;99.90
5200;DHT22;2619;47.868;11.892;2023-04-25T15:20:13;7.80;99.90
5200;DHT22;2619;47.868;11.892;2023-04-25T15:22:41;7.60;99.90
5200;DHT22;2619;47.868;11.892;2023-04-25T15:25:07;7.60;99.90
5200;DHT22;2619;47.868;11.892;2023-04-25T15:27:36;8.00;99.90
5200;DHT22;2619;47.868;11.892;2023-04-25T15:30:12;8.20;99.90
5200;DHT22;2619;47.868;11.892;2023-04-25T15:32:39;8.20;99.90
5200;DHT22;2619;47.868;11.892;2023-04-25T15:35:07;8.20;99.90
5200;DHT22;2619;47.868;11.892;2023-04-25T15:37:33;8.10;99.90
5200;DHT22;2619;47.868;11.892;2023-04-25T15:42:30;8.00;99.90
5200;DHT22;2619;47.868;11.892;2023-04-25T15:44:56;8.10;99.90
5200;DHT22;2619;47.868;11.892;2023-04-25T15:47:21;8.00;99.90
5200;DHT22;2619;47.868;11.892;2023-04-25T15:49:47;8.00;99.90
5200;DHT22;2619;47.868;11.892;2023-04-25T15:52:12;7.90;99.90
5200;DHT22;2619;47.868;11.892;2023-04-25T15:54:38;7.80;99.90
5200;DHT22;2619;47.868;11.892;2023-04-25T15:57:03;7.80;99.90
5200;DHT22;2619;47.868;11.892;2023-04-25T15:59:29;7.80;99.90
5200;DHT22;2619;47.868;11.892;2023-04-25T16:01:55;7.80;99.90
5200;DHT22;2619;47.868;11.892;2023-04-25T16:04:21;7.80;99.90
5200;DHT22;2619;47.868;11.892;2023-04-25T16:06:46;7.60;99.90